aviador You're here:

KAAF Decoded Metar

APALACHICOLA in FL, USA
Report Time2017-06-25 18:53:00
UTC Time2017-06-25 19:12:24
Flight Rules vfr VFR
Wind200° at 12 kt
W.Decomp.*RWY 18: 11.0 kt HW 4.7 kt RCW
RWY 24: 9.6 kt HW 7.2 kt LCW
RWY 14: 5.4 kt HW 10.7 kt RCW
W.Rank200° ranks 22
Current wind is above 200° avg. (7.8)
Visibility9999 m
Phenomena:N/A
Clouds:N/A
Expected CloudBase > 1,600 ft AGL from Temp-Dew spread
CeilingNone
Temp31°C (ISA +16)
Dew Point27°C (79% RH)
Heat Index40.5°C
QNH1019 hPa
Density Alt2,113 ft
Elevation16 ft
Report Wrong Elevation
Raw Report
METAR KAAF 251853Z AUTO 20012KT 10SM CLR 31/27 A3008 RMK AO2 SLP186
T03060272=

Extra information for KAAF:More info

Metar Taf Metar & Taf Last 4 Metars F.Rules Stats Wind Profile Meteogram Temp Stats Airport Information Weather charts Add Link Nearby VenuesMetar ALERT Operation Metar Decoded Social comments

AIRNAV info for KAAF